createdAt,value
2017-12-06T00:01:01.142Z,26.03
2017-12-06T00:03:28.766Z,25.57
2017-12-06T00:05:56.357Z,22.83
2017-12-06T00:08:23.963Z,26.90
2017-12-06T00:10:51.527Z,28.00
2017-12-06T00:13:24.610Z,26.00
2017-12-06T00:15:52.189Z,21.03
2017-12-06T00:18:19.794Z,25.20
2017-12-06T00:20:47.403Z,25.20
2017-12-06T00:23:15.055Z,26.63
2017-12-06T00:25:42.658Z,29.63
2017-12-06T00:28:10.297Z,28.47
2017-12-06T00:30:37.922Z,22.63
2017-12-06T00:33:05.553Z,26.00
2017-12-06T00:35:33.161Z,24.90
2017-12-06T00:38:00.738Z,29.07
2017-12-06T00:40:28.323Z,26.73
2017-12-06T00:42:55.909Z,23.70
2017-12-06T00:45:23.758Z,27.23
2017-12-06T00:47:51.327Z,24.80
2017-12-06T00:50:18.943Z,24.83
2017-12-06T00:52:46.608Z,24.30
2017-12-06T00:55:14.191Z,26.73
2017-12-06T00:57:41.820Z,23.73
2017-12-06T01:00:09.407Z,26.63
2017-12-06T01:02:36.981Z,27.87
2017-12-06T01:05:04.614Z,25.33
2017-12-06T01:07:32.196Z,26.07
2017-12-06T01:09:59.828Z,25.50
2017-12-06T01:12:27.435Z,25.30
2017-12-06T01:14:55.060Z,25.40
2017-12-06T01:17:22.629Z,25.10
2017-12-06T01:19:50.302Z,28.80
2017-12-06T01:22:17.880Z,26.37
2017-12-06T01:24:45.452Z,26.70
2017-12-06T01:27:13.042Z,25.37
2017-12-06T01:29:40.677Z,23.03
2017-12-06T01:32:08.268Z,26.20
2017-12-06T01:34:35.892Z,29.40
2017-12-06T01:37:03.478Z,28.47
2017-12-06T01:39:31.086Z,25.07
2017-12-06T01:41:58.658Z,25.63
2017-12-06T01:44:26.248Z,25.10
2017-12-06T01:46:53.830Z,25.47
2017-12-06T01:49:21.451Z,25.23
2017-12-06T01:51:49.042Z,24.70
2017-12-06T01:54:16.634Z,24.60
2017-12-06T01:56:44.246Z,26.37
2017-12-06T01:59:11.909Z,25.00
2017-12-06T02:01:39.577Z,24.07
2017-12-06T02:04:07.224Z,25.20
2017-12-06T02:06:34.843Z,25.77
2017-12-06T02:09:02.494Z,24.30
2017-12-06T02:11:30.102Z,25.97
2017-12-06T02:13:57.676Z,23.70
2017-12-06T02:16:25.315Z,24.70
2017-12-06T02:18:52.904Z,27.03
2017-12-06T02:21:20.528Z,28.70
2017-12-06T02:23:48.123Z,24.20
2017-12-06T02:26:15.714Z,25.43
2017-12-06T02:28:43.324Z,25.73
2017-12-06T02:31:11.070Z,22.77
2017-12-06T02:33:38.669Z,27.50
2017-12-06T02:36:06.263Z,25.90
2017-12-06T02:38:33.828Z,24.47
2017-12-06T02:41:13.350Z,24.33
2017-12-06T02:43:52.606Z,24.13
2017-12-06T02:46:20.216Z,24.60
2017-12-06T02:48:47.878Z,28.23
2017-12-06T02:51:15.536Z,28.17
2017-12-06T02:53:43.176Z,26.83
2017-12-06T02:56:10.789Z,29.87
2017-12-06T02:58:38.393Z,27.37
2017-12-06T03:01:06.009Z,26.10
2017-12-06T03:03:33.590Z,27.47
2017-12-06T03:06:01.240Z,25.60
2017-12-06T03:08:28.802Z,24.10
2017-12-06T03:10:56.382Z,24.47
2017-12-06T03:13:24.034Z,22.13
2017-12-06T03:15:51.642Z,24.83
2017-12-06T03:18:19.242Z,26.10
2017-12-06T03:20:46.818Z,24.10
2017-12-06T03:23:14.400Z,26.47
2017-12-06T03:25:41.964Z,23.93
2017-12-06T03:28:09.544Z,22.77
2017-12-06T03:30:37.111Z,26.80
2017-12-06T03:33:04.680Z,21.23
2017-12-06T03:35:32.256Z,23.20
2017-12-06T03:37:59.907Z,27.37
2017-12-06T03:40:27.464Z,23.27
2017-12-06T03:42:55.040Z,26.90
2017-12-06T03:45:22.620Z,25.67
2017-12-06T03:47:50.215Z,22.70
2017-12-06T03:50:17.792Z,22.53
2017-12-06T03:52:45.384Z,22.90
2017-12-06T03:55:12.984Z,24.17
2017-12-06T03:57:40.612Z,23.87
2017-12-06T04:00:08.211Z,25.83
2017-12-06T04:02:36.026Z,26.87
2017-12-06T04:05:03.624Z,25.87
2017-12-06T04:07:31.196Z,21.63
2017-12-06T04:09:58.927Z,22.17
2017-12-06T04:12:26.544Z,24.57
2017-12-06T04:14:54.148Z,25.30
2017-12-06T04:17:21.724Z,21.97
2017-12-06T04:19:49.307Z,22.90
2017-12-06T04:22:16.930Z,21.30
2017-12-06T04:24:44.523Z,24.73
2017-12-06T04:27:12.103Z,23.50
2017-12-06T04:29:39.687Z,22.43
2017-12-06T04:32:07.293Z,24.53
2017-12-06T04:34:34.919Z,22.73
2017-12-06T04:37:02.583Z,24.10
2017-12-06T04:39:30.293Z,21.57
2017-12-06T04:41:58.062Z,24.53
2017-12-06T04:44:25.673Z,25.33
2017-12-06T04:46:53.302Z,24.50
2017-12-06T04:49:20.941Z,27.57
2017-12-06T04:51:48.612Z,25.17
2017-12-06T04:54:16.230Z,26.30
2017-12-06T04:56:43.845Z,25.30
2017-12-06T04:59:11.559Z,23.10
2017-12-06T05:01:39.175Z,22.53
2017-12-06T05:04:06.759Z,22.37
2017-12-06T05:06:34.360Z,25.60
2017-12-06T05:09:01.952Z,22.83
2017-12-06T05:11:29.550Z,23.20
2017-12-06T05:13:57.138Z,26.20
2017-12-06T05:16:24.734Z,26.80
2017-12-06T05:18:52.310Z,21.53
2017-12-06T05:21:19.975Z,23.33
2017-12-06T05:23:47.571Z,21.50
2017-12-06T05:26:15.219Z,27.00
2017-12-06T05:28:42.831Z,24.20
2017-12-06T05:31:10.420Z,22.30
2017-12-06T05:33:38.008Z,26.57
2017-12-06T05:36:05.621Z,26.30
2017-12-06T05:38:33.260Z,27.20
2017-12-06T05:41:00.895Z,22.60
2017-12-06T05:43:28.487Z,26.33
2017-12-06T05:45:56.121Z,25.53
2017-12-06T05:48:23.693Z,25.23
2017-12-06T05:50:51.265Z,28.57
2017-12-06T05:53:18.861Z,30.15
2017-12-06T05:55:46.511Z,26.43
2017-12-06T05:58:14.079Z,28.00
2017-12-06T06:00:41.652Z,24.77
2017-12-06T06:03:09.245Z,24.30
2017-12-06T06:05:36.889Z,26.63
2017-12-06T06:08:04.479Z,24.27
2017-12-06T06:10:32.076Z,26.30
2017-12-06T06:12:59.671Z,29.43
2017-12-06T06:15:27.249Z,25.60
2017-12-06T06:17:54.874Z,30.20
2017-12-06T06:20:22.483Z,31.53
2017-12-06T06:22:50.077Z,26.63
2017-12-06T06:25:17.657Z,25.60
2017-12-06T06:27:45.224Z,28.27
2017-12-06T06:30:12.797Z,31.90
2017-12-06T06:32:40.415Z,23.90
2017-12-06T06:35:08.187Z,27.77
2017-12-06T06:37:35.845Z,25.00
2017-12-06T06:40:03.481Z,26.10
2017-12-06T06:42:31.097Z,28.43
2017-12-06T06:44:58.702Z,26.00
2017-12-06T06:47:26.311Z,29.40
2017-12-06T06:49:53.921Z,27.53
2017-12-06T06:52:21.549Z,28.27
2017-12-06T06:54:49.140Z,32.53
2017-12-06T06:57:16.733Z,26.10
2017-12-06T06:59:44.353Z,27.00
2017-12-06T07:02:11.969Z,27.20
2017-12-06T07:04:39.587Z,29.37
2017-12-06T07:07:07.215Z,29.37
2017-12-06T07:09:34.806Z,29.93
2017-12-06T07:12:02.400Z,25.27
2017-12-06T07:14:30.088Z,28.50
2017-12-06T07:16:57.687Z,25.40
2017-12-06T07:19:25.301Z,30.13
2017-12-06T07:21:52.881Z,32.13
2017-12-06T07:24:20.504Z,31.00
2017-12-06T07:26:48.075Z,26.37
2017-12-06T07:29:15.689Z,26.50
2017-12-06T07:31:43.300Z,27.97
2017-12-06T07:34:10.894Z,30.30
2017-12-06T07:36:38.474Z,26.63
2017-12-06T07:39:06.170Z,29.07
2017-12-06T07:41:33.803Z,28.17
2017-12-06T07:44:01.426Z,29.90
2017-12-06T07:46:29.064Z,26.33
2017-12-06T07:48:56.806Z,24.47
2017-12-06T07:51:24.381Z,26.10
2017-12-06T07:53:52.041Z,26.00
2017-12-06T07:56:19.740Z,28.57
2017-12-06T07:58:47.370Z,26.13
2017-12-06T08:01:14.932Z,26.00
2017-12-06T08:03:42.560Z,24.50
2017-12-06T08:06:10.150Z,24.57
2017-12-06T08:08:37.752Z,27.50
2017-12-06T08:11:05.313Z,24.67
2017-12-06T08:13:32.944Z,29.43
2017-12-06T08:16:00.954Z,24.90
2017-12-06T08:18:28.530Z,25.93
2017-12-06T08:20:56.216Z,23.07
2017-12-06T08:23:23.786Z,25.23
2017-12-06T08:25:51.392Z,31.67
2017-12-06T08:28:18.992Z,25.03
2017-12-06T08:30:46.715Z,23.13
2017-12-06T08:33:14.320Z,25.90
2017-12-06T08:35:41.907Z,24.87
2017-12-06T08:38:09.532Z,29.53
2017-12-06T08:40:37.120Z,26.87
2017-12-06T08:43:04.709Z,24.10
2017-12-06T08:45:32.351Z,25.80
2017-12-06T08:47:59.932Z,28.13
2017-12-06T08:50:27.604Z,26.73
2017-12-06T08:52:55.253Z,22.83
2017-12-06T08:55:22.822Z,20.43
2017-12-06T08:57:50.398Z,25.00
2017-12-06T09:00:18.020Z,22.93
2017-12-06T09:02:45.592Z,22.90
2017-12-06T09:05:13.229Z,21.80
2017-12-06T09:07:40.815Z,22.80
2017-12-06T09:10:08.442Z,20.30
2017-12-06T09:12:36.777Z,20.40
2017-12-06T09:15:04.443Z,27.83
2017-12-06T09:17:32.087Z,18.60
2017-12-06T09:19:59.704Z,20.30
2017-12-06T09:22:27.349Z,21.83
2017-12-06T09:24:54.940Z,18.20
2017-12-06T09:27:22.563Z,23.07
2017-12-06T09:29:50.132Z,20.20
2017-12-06T09:32:17.779Z,25.47
2017-12-06T09:34:45.401Z,19.27
2017-12-06T09:37:13.036Z,23.03
2017-12-06T09:39:40.632Z,18.17
2017-12-06T09:42:08.212Z,20.23
2017-12-06T09:44:35.841Z,17.67
2017-12-06T09:47:03.415Z,19.57
2017-12-06T09:49:31.005Z,16.60
2017-12-06T09:51:58.690Z,17.10
2017-12-06T09:54:26.284Z,17.77
2017-12-06T09:56:53.894Z,19.97
2017-12-06T09:59:21.470Z,17.83
2017-12-06T10:01:49.131Z,18.00
2017-12-06T10:04:16.814Z,17.30
2017-12-06T10:06:44.433Z,17.97
2017-12-06T10:09:12.012Z,16.20
2017-12-06T10:11:39.621Z,20.13
2017-12-06T10:14:07.212Z,15.40
2017-12-06T10:16:34.811Z,15.87
2017-12-06T10:19:02.426Z,14.37
2017-12-06T10:21:30.121Z,14.60
2017-12-06T10:23:58.005Z,13.70
2017-12-06T10:26:25.596Z,15.37
2017-12-06T10:28:53.208Z,19.40
2017-12-06T10:31:20.802Z,13.90
2017-12-06T10:33:48.406Z,18.37
2017-12-06T10:36:15.990Z,15.00
2017-12-06T10:38:43.634Z,14.80
2017-12-06T10:41:11.211Z,17.03
2017-12-06T10:43:38.821Z,17.03
2017-12-06T10:46:06.412Z,17.50
2017-12-06T10:48:34.025Z,15.93
2017-12-06T10:51:01.607Z,13.80
2017-12-06T10:53:29.232Z,11.70
2017-12-06T10:55:56.816Z,12.63
2017-12-06T10:58:24.460Z,12.73
2017-12-06T11:00:52.102Z,12.20
2017-12-06T11:03:19.716Z,14.00
2017-12-06T11:05:47.311Z,10.90
2017-12-06T11:08:14.931Z,13.10
2017-12-06T11:10:42.508Z,9.40
2017-12-06T11:13:10.596Z,11.97
2017-12-06T11:15:38.225Z,11.13
2017-12-06T11:18:05.766Z,9.10
2017-12-06T11:20:33.348Z,10.77
2017-12-06T11:23:00.909Z,11.43
2017-12-06T11:25:28.491Z,11.90
2017-12-06T11:27:56.161Z,9.80
2017-12-06T11:30:23.765Z,11.90
2017-12-06T11:32:51.373Z,17.17
2017-12-06T11:35:19.022Z,8.00
2017-12-06T11:37:46.632Z,10.93
2017-12-06T11:40:14.291Z,10.40
2017-12-06T11:42:41.885Z,12.10
2017-12-06T11:45:09.557Z,11.23
2017-12-06T11:47:37.128Z,11.10
2017-12-06T11:50:04.705Z,8.10
2017-12-06T11:52:32.261Z,9.60
2017-12-06T11:54:59.920Z,12.60
2017-12-06T11:57:27.508Z,9.77
2017-12-06T11:59:55.104Z,12.53
2017-12-06T12:02:22.728Z,13.57
2017-12-06T12:04:50.359Z,9.57
2017-12-06T12:07:18.269Z,14.17
2017-12-06T12:09:45.931Z,12.43
2017-12-06T12:12:13.659Z,13.40
2017-12-06T12:14:41.268Z,11.47
2017-12-06T12:17:08.851Z,14.10
2017-12-06T12:19:36.557Z,14.40
2017-12-06T12:22:04.138Z,10.13
2017-12-06T12:24:31.733Z,12.60
2017-12-06T12:26:59.378Z,11.40
2017-12-06T12:29:27.094Z,7.80
2017-12-06T12:31:54.681Z,9.07
2017-12-06T12:34:22.275Z,8.80
2017-12-06T12:36:49.873Z,8.90
2017-12-06T12:39:17.450Z,11.27
2017-12-06T12:41:45.105Z,9.70
2017-12-06T12:44:12.705Z,9.00
2017-12-06T12:46:40.293Z,7.63
2017-12-06T12:49:07.869Z,9.53
2017-12-06T12:51:35.469Z,8.40
2017-12-06T12:54:03.062Z,10.00
2017-12-06T12:56:30.727Z,11.97
2017-12-06T12:58:58.326Z,11.40
2017-12-06T13:01:25.972Z,11.50
2017-12-06T13:03:53.529Z,14.67
2017-12-06T13:06:21.116Z,9.17
2017-12-06T13:08:48.683Z,7.93
2017-12-06T13:11:16.314Z,7.63
2017-12-06T13:13:43.877Z,6.93
2017-12-06T13:16:11.633Z,7.13
2017-12-06T13:18:39.343Z,9.80
2017-12-06T13:21:06.918Z,7.40
2017-12-06T13:23:34.561Z,6.93
2017-12-06T13:26:02.129Z,10.83
2017-12-06T13:28:29.725Z,15.20
2017-12-06T13:30:57.287Z,10.70
2017-12-06T13:33:24.862Z,8.50
2017-12-06T13:35:52.422Z,7.77
2017-12-06T13:38:19.999Z,7.57
2017-12-06T13:40:47.615Z,5.97
2017-12-06T13:43:15.246Z,5.63
2017-12-06T13:45:42.810Z,5.10
2017-12-06T13:48:10.397Z,6.20
2017-12-06T13:50:37.967Z,5.93
2017-12-06T13:53:05.564Z,10.10
2017-12-06T13:55:33.164Z,7.90
2017-12-06T13:58:00.810Z,7.40
2017-12-06T14:00:28.423Z,5.70
2017-12-06T14:02:56.347Z,6.23
2017-12-06T14:05:24.035Z,6.57
2017-12-06T14:07:51.626Z,6.47
2017-12-06T14:10:19.242Z,11.90
2017-12-06T14:12:46.857Z,7.80
2017-12-06T14:15:14.400Z,6.90
2017-12-06T14:17:42.051Z,6.20
2017-12-06T14:20:10.080Z,6.53
2017-12-06T14:22:37.645Z,7.13
2017-12-06T14:25:05.261Z,7.77
2017-12-06T14:27:32.856Z,8.63
2017-12-06T14:30:00.461Z,8.03
2017-12-06T14:32:28.119Z,8.13
2017-12-06T14:34:55.701Z,8.17
2017-12-06T14:37:23.285Z,9.10
2017-12-06T14:39:50.888Z,10.37
2017-12-06T14:42:18.447Z,7.70
2017-12-06T14:44:46.030Z,16.53
2017-12-06T14:47:13.618Z,8.90
2017-12-06T14:49:41.272Z,8.70
2017-12-06T14:52:08.955Z,10.50
2017-12-06T14:54:36.564Z,9.07
2017-12-06T14:57:04.136Z,10.20
2017-12-06T14:59:31.732Z,8.33
2017-12-06T15:01:59.312Z,8.60
2017-12-06T15:04:26.891Z,10.83
2017-12-06T15:06:54.471Z,9.30
2017-12-06T15:09:22.050Z,7.03
2017-12-06T15:11:49.630Z,10.43
2017-12-06T15:14:17.245Z,9.23
2017-12-06T15:16:44.982Z,9.67
2017-12-06T15:19:13.033Z,9.40
2017-12-06T15:21:40.667Z,13.87
2017-12-06T15:24:08.226Z,9.33
2017-12-06T15:26:35.828Z,6.97
2017-12-06T15:29:03.408Z,10.50
2017-12-06T15:31:31.026Z,9.43
2017-12-06T15:33:58.620Z,7.40
2017-12-06T15:36:26.238Z,11.63
2017-12-06T15:38:53.838Z,11.27
2017-12-06T15:41:21.630Z,13.27
2017-12-06T15:43:49.218Z,11.37
2017-12-06T15:46:16.845Z,11.20
2017-12-06T15:48:44.422Z,11.93
2017-12-06T15:51:12.049Z,9.40
2017-12-06T15:53:39.667Z,9.70
2017-12-06T15:56:07.412Z,9.90
2017-12-06T15:58:34.969Z,9.17
2017-12-06T16:01:02.569Z,15.47
2017-12-06T16:03:30.181Z,9.97
2017-12-06T16:05:57.780Z,10.90
2017-12-06T16:08:25.411Z,9.07
2017-12-06T16:10:53.016Z,8.00
2017-12-06T16:13:20.608Z,10.47
2017-12-06T16:15:48.275Z,10.27
2017-12-06T16:18:15.888Z,9.30
2017-12-06T16:20:43.522Z,10.60
2017-12-06T16:23:11.104Z,12.80
2017-12-06T16:25:38.723Z,10.57
2017-12-06T16:28:06.303Z,10.77
2017-12-06T16:30:33.884Z,9.67
2017-12-06T16:33:01.518Z,17.23
2017-12-06T16:35:40.802Z,9.27
2017-12-06T16:38:08.723Z,10.33
2017-12-06T16:40:36.351Z,10.30
2017-12-06T16:43:04.009Z,13.60
2017-12-06T16:45:31.662Z,8.93
2017-12-06T16:47:59.331Z,9.10
2017-12-06T16:50:26.965Z,8.90
2017-12-06T16:52:54.602Z,11.03
2017-12-06T16:55:22.180Z,9.10
2017-12-06T16:57:49.825Z,10.37
2017-12-06T17:00:17.405Z,11.50
2017-12-06T17:02:45.040Z,10.80
2017-12-06T17:05:12.631Z,15.17
2017-12-06T17:07:40.393Z,11.37
2017-12-06T17:10:07.984Z,9.97
2017-12-06T17:12:35.643Z,9.00
2017-12-06T17:15:03.217Z,12.70
2017-12-06T17:17:30.925Z,12.40
2017-12-06T17:19:58.571Z,11.80
2017-12-06T17:22:26.164Z,11.50
2017-12-06T17:24:53.778Z,10.37
2017-12-06T17:27:21.369Z,9.50
2017-12-06T17:30:00.670Z,9.00
2017-12-06T17:32:28.271Z,11.37
2017-12-06T17:34:55.920Z,13.93
2017-12-06T17:37:23.554Z,8.73
2017-12-06T17:39:51.132Z,10.93
2017-12-06T17:42:18.756Z,11.17
2017-12-06T17:44:46.363Z,9.60
2017-12-06T17:47:13.957Z,11.40
2017-12-06T17:49:41.600Z,11.43
2017-12-06T17:52:09.163Z,12.20
2017-12-06T17:54:36.804Z,14.53
2017-12-06T17:57:04.423Z,15.23
2017-12-06T17:59:32.026Z,12.87
2017-12-06T18:01:59.612Z,12.47
2017-12-06T18:04:27.286Z,12.17
2017-12-06T18:06:54.870Z,13.60
2017-12-06T18:09:22.507Z,10.90
2017-12-06T18:11:50.446Z,13.20
2017-12-06T18:14:18.085Z,11.73
2017-12-06T18:16:45.696Z,11.40
2017-12-06T18:19:13.318Z,12.90
2017-12-06T18:21:40.936Z,14.67
2017-12-06T18:24:08.740Z,20.03
2017-12-06T18:26:36.334Z,17.57
2017-12-06T18:29:03.938Z,15.30
2017-12-06T18:31:31.635Z,16.80
2017-12-06T18:33:59.250Z,17.53
2017-12-06T18:36:26.984Z,18.70
2017-12-06T18:38:54.595Z,18.67
2017-12-06T18:41:22.339Z,17.83
2017-12-06T18:43:49.980Z,21.83
2017-12-06T18:46:17.647Z,18.60
2017-12-06T18:48:45.318Z,19.27
2017-12-06T18:51:13.046Z,18.40
2017-12-06T18:53:40.677Z,20.73
2017-12-06T18:56:08.299Z,18.90
2017-12-06T18:58:35.947Z,19.43
2017-12-06T19:01:03.665Z,21.57
2017-12-06T19:03:31.310Z,20.40
2017-12-06T19:05:59.917Z,16.20
2017-12-06T19:08:27.608Z,20.60
2017-12-06T19:10:55.342Z,17.17
2017-12-06T19:13:23.062Z,17.00
2017-12-06T19:15:50.769Z,16.30
2017-12-06T19:18:18.465Z,15.50
2017-12-06T19:20:46.189Z,17.77
2017-12-06T19:23:15.275Z,17.73
2017-12-06T19:25:43.086Z,17.40
2017-12-06T19:28:10.861Z,20.83
2017-12-06T19:30:38.650Z,19.20
2017-12-06T19:33:06.698Z,17.87
2017-12-06T19:35:34.604Z,18.33
2017-12-06T19:38:02.490Z,16.63
2017-12-06T19:40:30.304Z,17.43
2017-12-06T19:42:58.169Z,20.93
2017-12-06T19:45:26.153Z,16.67
2017-12-06T19:47:54.599Z,16.20
2017-12-06T19:50:22.374Z,15.97
2017-12-06T19:52:50.302Z,19.53
2017-12-06T19:55:18.214Z,20.43
2017-12-06T19:57:45.984Z,17.70
2017-12-06T20:00:13.763Z,17.90
2017-12-06T20:02:41.546Z,20.30
2017-12-06T20:05:09.437Z,22.50
2017-12-06T20:07:37.307Z,18.50
2017-12-06T20:10:05.085Z,15.40
2017-12-06T20:12:34.538Z,17.00
2017-12-06T20:15:02.343Z,17.57
2017-12-06T20:17:30.137Z,18.20
2017-12-06T20:19:57.932Z,19.93
2017-12-06T20:22:25.705Z,16.93
2017-12-06T20:24:53.598Z,18.47
2017-12-06T20:27:22.330Z,16.93
2017-12-06T20:30:00.287Z,18.53
2017-12-06T20:32:30.050Z,17.03
2017-12-06T20:34:57.971Z,19.08
2017-12-06T20:37:28.001Z,17.83
2017-12-06T20:39:56.958Z,19.03
2017-12-06T20:42:26.607Z,19.43
2017-12-06T20:44:54.475Z,18.13
2017-12-06T20:47:23.017Z,19.00
2017-12-06T20:49:51.590Z,27.00
2017-12-06T20:52:19.349Z,19.13
2017-12-06T20:54:47.133Z,21.37
2017-12-06T20:57:14.916Z,20.90
2017-12-06T20:59:42.781Z,17.10
2017-12-06T21:02:10.540Z,20.80
2017-12-06T21:04:38.311Z,18.60
2017-12-06T21:07:06.033Z,17.10
2017-12-06T21:09:33.791Z,16.87
2017-12-06T21:12:01.521Z,17.80
2017-12-06T21:14:29.233Z,18.80
2017-12-06T21:16:56.973Z,16.60
2017-12-06T21:19:25.731Z,20.20
2017-12-06T21:21:53.459Z,20.30
2017-12-06T21:24:21.158Z,19.50
2017-12-06T21:26:49.160Z,19.07
2017-12-06T21:29:16.876Z,23.97
2017-12-06T21:31:44.536Z,21.73
2017-12-06T21:34:12.235Z,18.50
2017-12-06T21:36:39.942Z,18.70
2017-12-06T21:39:07.598Z,18.77
2017-12-06T21:41:35.304Z,18.90
2017-12-06T21:44:02.969Z,18.43
2017-12-06T21:46:30.588Z,21.00
2017-12-06T21:48:58.286Z,16.40
2017-12-06T21:51:25.940Z,20.57
2017-12-06T21:53:53.518Z,21.20
2017-12-06T21:56:21.171Z,24.60
2017-12-06T21:58:48.778Z,19.77
2017-12-06T22:01:16.436Z,17.17
2017-12-06T22:03:44.028Z,19.10
2017-12-06T22:06:11.681Z,18.03
2017-12-06T22:08:39.298Z,18.47
2017-12-06T22:11:06.941Z,19.10
2017-12-06T22:13:34.592Z,18.43
2017-12-06T22:16:02.217Z,18.87
2017-12-06T22:18:29.839Z,20.77
2017-12-06T22:20:57.450Z,20.87
2017-12-06T22:23:25.055Z,18.83
2017-12-06T22:25:52.669Z,19.37
2017-12-06T22:28:20.312Z,18.07
2017-12-06T22:30:47.985Z,22.47
2017-12-06T22:33:15.563Z,20.43
2017-12-06T22:35:43.279Z,21.07
2017-12-06T22:38:10.868Z,21.10
2017-12-06T22:40:38.447Z,18.43
2017-12-06T22:43:06.087Z,20.13
2017-12-06T22:45:33.730Z,17.67
2017-12-06T22:48:01.346Z,20.33
2017-12-06T22:50:28.975Z,21.17
2017-12-06T22:52:56.598Z,22.33
2017-12-06T22:55:25.099Z,22.47
2017-12-06T22:57:52.709Z,19.10
2017-12-06T23:00:20.291Z,19.00
2017-12-06T23:02:47.894Z,21.47
2017-12-06T23:05:15.580Z,20.50
2017-12-06T23:07:43.206Z,20.73
2017-12-06T23:10:10.827Z,20.80
2017-12-06T23:12:38.498Z,18.90
2017-12-06T23:15:06.088Z,19.43
2017-12-06T23:17:33.735Z,21.80
2017-12-06T23:20:01.440Z,20.40
2017-12-06T23:22:29.078Z,18.17
2017-12-06T23:24:56.686Z,22.13
2017-12-06T23:27:24.288Z,20.37
2017-12-06T23:29:52.052Z,21.03
2017-12-06T23:32:19.697Z,18.57
2017-12-06T23:34:47.289Z,19.63
2017-12-06T23:37:14.938Z,18.97
2017-12-06T23:39:42.511Z,19.27
2017-12-06T23:42:10.089Z,19.63
2017-12-06T23:44:37.720Z,17.60
2017-12-06T23:47:05.327Z,15.03
2017-12-06T23:49:32.953Z,18.17
2017-12-06T23:52:00.591Z,15.27
2017-12-06T23:54:28.199Z,18.53
2017-12-06T23:56:55.846Z,18.70
2017-12-06T23:59:23.490Z,18.57
